Time;durP1;ratioP1;P1;durP2;ratioP2;P2;SDS_P1;SDS_P2;PMS_P1;PMS_P2;Temp;Humidity;BMP_temperature;BMP_pressure;BME280_temperature;BME280_humidity;BME280_pressure;Samples;Min_cycle;Max_cycle;Signal;HPM_P1;HPM_P2
2021/12/05 00:18:04;;;;;;;10.40;3.30;;;5.70;99.90;;;;;;5057672;28;20200;-71
2021/12/05 00:24:01;;;;;;;9.35;3.00;;;5.90;99.90;;;;;;5045909;28;20205;-71
2021/12/05 00:26:52;;;;;;;8.82;3.38;;;5.80;99.90;;;;;;5056126;28;20196;-71
2021/12/05 00:29:44;;;;;;;5.50;2.28;;;5.80;99.90;;;;;;5052795;28;20583;-71
2021/12/05 00:32:36;;;;;;;7.30;2.60;;;5.90;99.90;;;;;;5052420;28;20252;-71
2021/12/05 00:42:01;;;;;;;16.33;2.80;;;6.00;99.90;;;;;;5047116;28;20287;-71
2021/12/05 01:00:33;;;;;;;12.25;2.80;;;5.90;99.90;;;;;;5050839;28;20613;-71
2021/12/05 01:09:39;;;;;;;10.40;3.08;;;5.90;99.90;;;;;;5038355;28;20591;-71
2021/12/05 01:12:40;;;;;;;10.75;2.28;;;5.80;99.90;;;;;;5051278;28;20563;-71
2021/12/05 01:15:29;;;;;;;7.82;2.85;;;5.80;99.90;;;;;;5053051;28;20212;-71
2021/12/05 01:18:16;;;;;;;5.80;1.80;;;5.80;99.90;;;;;;5047872;28;20201;-71
2021/12/05 01:21:08;;;;;;;12.60;3.47;;;5.80;99.90;;;;;;5051128;28;20221;-71
2021/12/05 01:23:59;;;;;;;7.35;2.33;;;5.80;99.90;;;;;;5041782;28;20201;-71
2021/12/05 01:26:56;;;;;;;5.20;2.05;;;5.80;99.90;;;;;;5057986;28;20212;-71
2021/12/05 01:29:49;;;;;;;7.88;1.65;;;5.70;99.90;;;;;;5051852;28;20232;-71
2021/12/05 01:32:46;;;;;;;4.47;1.90;;;5.80;99.90;;;;;;5055720;28;20306;-71
2021/12/05 01:35:49;;;;;;;7.88;2.05;;;5.70;99.90;;;;;;5049302;28;20213;-71
2021/12/05 01:51:19;;;;;;;8.18;2.45;;;5.50;99.90;;;;;;5048801;28;20735;-71
2021/12/05 01:57:35;;;;;;;10.35;2.65;;;5.50;99.90;;;;;;5050706;28;20225;-71
2021/12/05 02:09:54;;;;;;;10.70;2.97;;;5.60;99.90;;;;;;5064645;28;20217;-71
2021/12/05 02:15:58;;;;;;;15.35;4.85;;;5.50;99.90;;;;;;5056340;28;20200;-71
2021/12/05 02:34:24;;;;;;;8.57;2.90;;;5.60;99.90;;;;;;5021587;28;20551;-71
2021/12/05 02:40:28;;;;;;;13.38;4.45;;;5.60;99.90;;;;;;5027217;28;20193;-71
2021/12/05 02:43:19;;;;;;;7.65;3.13;;;5.60;99.90;;;;;;5050243;28;21027;-71
2021/12/05 02:46:06;;;;;;;11.73;3.60;;;5.70;99.90;;;;;;5054069;28;20200;-71
2021/12/05 02:48:54;;;;;;;15.00;4.10;;;5.70;99.90;;;;;;5050151;28;20213;-71
2021/12/05 02:51:40;;;;;;;12.20;3.08;;;5.70;99.90;;;;;;5058033;28;20587;-71
2021/12/05 02:54:30;;;;;;;11.85;3.15;;;5.60;99.90;;;;;;5055149;28;20211;-71
2021/12/05 02:57:19;;;;;;;8.10;3.20;;;5.70;99.90;;;;;;5054534;28;20197;-71
2021/12/05 03:00:10;;;;;;;18.77;2.97;;;5.60;99.90;;;;;;5061633;28;20197;-71
2021/12/05 03:02:57;;;;;;;10.57;2.85;;;5.70;99.90;;;;;;5049735;28;20221;-71
2021/12/05 03:05:44;;;;;;;6.93;3.28;;;5.70;99.90;;;;;;5055249;28;20247;-71
2021/12/05 03:08:30;;;;;;;14.98;3.70;;;5.60;99.90;;;;;;5060722;28;20228;-71
2021/12/05 03:11:18;;;;;;;22.95;4.00;;;5.70;99.90;;;;;;5056938;28;20240;-72
2021/12/05 03:14:04;;;;;;;10.85;4.30;;;5.70;99.90;;;;;;5054612;28;20295;-72
2021/12/05 03:16:50;;;;;;;7.70;2.92;;;5.70;99.90;;;;;;5052763;28;20203;-71
2021/12/05 03:19:36;;;;;;;6.97;2.70;;;5.80;99.90;;;;;;5057290;28;20725;-72
2021/12/05 03:22:22;;;;;;;5.90;2.72;;;5.90;99.90;;;;;;5048870;28;20786;-71
2021/12/05 03:25:09;;;;;;;11.38;3.15;;;5.90;99.90;;;;;;5056478;28;20200;-71
2021/12/05 03:27:56;;;;;;;11.38;2.45;;;5.80;99.90;;;;;;5060409;28;20201;-71
2021/12/05 03:30:42;;;;;;;7.47;2.85;;;5.70;99.90;;;;;;5053967;28;20686;-71
2021/12/05 03:33:28;;;;;;;11.43;3.15;;;5.60;99.90;;;;;;5049344;28;20247;-71
2021/12/05 03:36:14;;;;;;;7.32;3.15;;;5.60;99.90;;;;;;5056094;28;20195;-71
2021/12/05 03:39:02;;;;;;;8.20;2.50;;;5.50;99.90;;;;;;5054436;28;20706;-71
2021/12/05 03:41:49;;;;;;;9.43;3.15;;;5.40;99.90;;;;;;5056976;28;20715;-71
2021/12/05 03:44:37;;;;;;;10.35;3.08;;;5.40;99.90;;;;;;5051315;28;20209;-71
2021/12/05 03:47:27;;;;;;;9.55;3.05;;;5.40;99.90;;;;;;5059904;28;20686;-71
2021/12/05 03:50:14;;;;;;;9.02;3.20;;;5.40;99.90;;;;;;5046448;28;20310;-71
2021/12/05 03:52:59;;;;;;;11.77;2.60;;;5.40;99.90;;;;;;5050826;28;20223;-71
2021/12/05 03:55:48;;;;;;;17.52;2.75;;;5.40;99.90;;;;;;5060625;28;20243;-71
2021/12/05 03:58:34;;;;;;;7.60;2.67;;;5.40;99.90;;;;;;5054579;28;20201;-71
2021/12/05 04:01:24;;;;;;;7.13;3.30;;;5.40;99.90;;;;;;5051937;28;20225;-71
2021/12/05 04:04:11;;;;;;;12.80;3.50;;;5.30;99.90;;;;;;5054967;28;20204;-71
2021/12/05 04:06:58;;;;;;;10.63;2.90;;;5.30;99.90;;;;;;5051522;28;20208;-71
2021/12/05 04:09:43;;;;;;;14.57;3.20;;;5.20;99.90;;;;;;5060251;28;20358;-71
2021/12/05 04:12:29;;;;;;;10.43;3.33;;;5.10;99.90;;;;;;5044691;28;20224;-71
2021/12/05 04:15:15;;;;;;;10.50;2.95;;;5.10;99.90;;;;;;5057402;28;20666;-71
2021/12/05 04:18:02;;;;;;;7.38;2.53;;;5.10;99.90;;;;;;5050365;28;20255;-71
2021/12/05 04:20:49;;;;;;;9.98;2.40;;;5.10;99.90;;;;;;5057605;28;20277;-71
2021/12/05 04:23:35;;;;;;;7.40;2.50;;;5.20;99.90;;;;;;5046582;28;20208;-71
2021/12/05 04:26:21;;;;;;;8.95;3.15;;;5.20;99.90;;;;;;5053131;28;20203;-71
2021/12/05 04:29:08;;;;;;;7.75;2.53;;;5.30;99.90;;;;;;5052894;28;20352;-71
2021/12/05 04:31:54;;;;;;;8.43;2.70;;;5.20;99.90;;;;;;5045213;28;20240;-71
2021/12/05 04:34:41;;;;;;;6.75;2.70;;;5.20;99.90;;;;;;5056051;28;20276;-71
2021/12/05 04:37:27;;;;;;;13.70;2.42;;;5.10;99.90;;;;;;5061192;28;20224;-71
2021/12/05 04:40:14;;;;;;;12.85;3.13;;;5.00;99.90;;;;;;5052448;28;20560;-71
2021/12/05 04:43:00;;;;;;;5.47;2.30;;;4.80;99.90;;;;;;5052309;28;20244;-71
2021/12/05 04:45:46;;;;;;;10.07;2.10;;;4.80;99.90;;;;;;5052338;28;20279;-71
2021/12/05 04:48:32;;;;;;;7.15;2.70;;;4.70;99.90;;;;;;5053447;28;20204;-71
2021/12/05 04:51:21;;;;;;;5.47;2.35;;;4.60;99.90;;;;;;5055438;28;20244;-71
2021/12/05 04:54:08;;;;;;;11.13;2.70;;;4.70;99.90;;;;;;5055425;28;20196;-71
2021/12/05 04:56:54;;;;;;;8.13;2.08;;;4.80;99.90;;;;;;5050072;28;20213;-71
2021/12/05 04:59:46;;;;;;;2.42;1.40;;;4.80;99.90;;;;;;5056562;28;20560;-71
2021/12/05 05:02:31;;;;;;;6.68;1.50;;;4.90;99.90;;;;;;5047643;28;20594;-71
2021/12/05 05:05:18;;;;;;;9.82;1.88;;;4.90;99.90;;;;;;5054309;28;20589;-71
2021/12/05 05:08:06;;;;;;;3.05;1.73;;;4.90;99.90;;;;;;5055709;28;20211;-71
2021/12/05 05:10:51;;;;;;;6.30;1.98;;;5.00;99.90;;;;;;5050922;28;20844;-71
2021/12/05 05:13:38;;;;;;;3.80;1.50;;;5.00;99.90;;;;;;5061791;28;20209;-71
2021/12/05 05:16:26;;;;;;;2.58;1.58;;;5.10;99.90;;;;;;5052684;28;20801;-71
2021/12/05 05:19:14;;;;;;;6.40;1.90;;;5.00;99.90;;;;;;5054321;28;20218;-71
2021/12/05 05:22:05;;;;;;;5.97;2.45;;;5.00;99.90;;;;;;5042620;28;20225;-71
2021/12/05 05:28:25;;;;;;;5.35;1.80;;;5.10;99.90;;;;;;5053656;28;20205;-71
2021/12/05 05:41:13;;;;;;;5.57;2.80;;;5.10;99.90;;;;;;5047278;28;20244;-71
2021/12/05 05:44:23;;;;;;;10.02;2.35;;;5.10;99.90;;;;;;5055059;28;20207;-71
2021/12/05 05:47:12;;;;;;;3.25;1.70;;;5.10;99.90;;;;;;5052739;28;20223;-71
2021/12/05 05:49:58;;;;;;;6.20;2.15;;;5.10;99.90;;;;;;5055307;28;20694;-71
2021/12/05 05:52:45;;;;;;;6.00;2.10;;;5.10;99.90;;;;;;5053809;28;20612;-71
2021/12/05 05:55:32;;;;;;;5.00;1.65;;;5.10;99.90;;;;;;5057493;28;20216;-71
2021/12/05 05:58:21;;;;;;;5.90;2.40;;;5.10;99.90;;;;;;5055644;28;20307;-71
2021/12/05 06:01:15;;;;;;;4.45;1.85;;;5.10;99.90;;;;;;5043711;28;20225;-71
2021/12/05 06:04:00;;;;;;;10.43;2.53;;;5.10;99.90;;;;;;5049961;28;20216;-71
2021/12/05 06:06:46;;;;;;;5.95;2.13;;;5.10;99.90;;;;;;5054871;28;20208;-71
2021/12/05 06:09:32;;;;;;;4.60;2.20;;;5.00;99.90;;;;;;5054609;28;20303;-71
2021/12/05 06:12:20;;;;;;;7.30;2.33;;;5.00;99.90;;;;;;5053908;28;20583;-71
2021/12/05 06:15:08;;;;;;;6.78;2.15;;;5.00;99.90;;;;;;5050595;28;20282;-71
2021/12/05 06:17:54;;;;;;;5.68;1.85;;;5.10;99.90;;;;;;5050789;28;20221;-71
2021/12/05 06:20:40;;;;;;;4.93;1.85;;;4.90;99.90;;;;;;5048278;28;20290;-71
2021/12/05 06:23:26;;;;;;;4.03;1.80;;;4.90;99.90;;;;;;5054251;28;20208;-71
2021/12/05 06:26:19;;;;;;;4.25;2.05;;;5.00;99.90;;;;;;5048858;28;20200;-71
2021/12/05 06:29:07;;;;;;;6.43;1.30;;;5.00;99.90;;;;;;5054482;28;20682;-71
2021/12/05 06:32:19;;;;;;;3.22;1.67;;;5.00;99.90;;;;;;5056410;28;20586;-71
2021/12/05 06:38:12;;;;;;;4.28;1.83;;;5.10;99.90;;;;;;5057267;28;20200;-71
2021/12/05 06:41:09;;;;;;;9.93;2.00;;;5.10;99.90;;;;;;5047657;28;20197;-71
2021/12/05 06:47:01;;;;;;;4.15;1.50;;;5.10;99.90;;;;;;5054997;28;20246;-71
2021/12/05 06:49:46;;;;;;;4.18;1.92;;;5.10;99.90;;;;;;5051158;28;20220;-71
2021/12/05 06:52:32;;;;;;;3.67;1.45;;;5.10;99.90;;;;;;5052486;28;20251;-71
2021/12/05 06:55:19;;;;;;;6.78;2.03;;;5.10;99.90;;;;;;5063688;28;20208;-71
2021/12/05 06:58:05;;;;;;;7.25;1.83;;;5.10;99.90;;;;;;5054588;28;20204;-71
2021/12/05 07:00:51;;;;;;;5.25;2.08;;;5.20;99.90;;;;;;5052209;28;20201;-71
2021/12/05 07:03:43;;;;;;;7.03;2.28;;;5.20;99.90;;;;;;5060483;28;20216;-71
2021/12/05 07:06:31;;;;;;;3.97;1.90;;;5.20;99.90;;;;;;5059853;28;20204;-71
2021/12/05 07:09:17;;;;;;;7.07;2.22;;;5.30;99.90;;;;;;5059200;28;20734;-71
2021/12/05 07:12:31;;;;;;;2.30;1.40;;;5.30;99.90;;;;;;5053259;28;20724;-71
2021/12/05 07:15:16;;;;;;;8.32;2.20;;;5.30;99.90;;;;;;5056220;28;20324;-71
2021/12/05 07:21:25;;;;;;;5.85;2.20;;;5.30;99.90;;;;;;5050133;28;20752;-72
2021/12/05 07:24:19;;;;;;;3.53;2.17;;;5.20;99.90;;;;;;5054554;28;20216;-72
2021/12/05 07:42:29;;;;;;;10.55;2.80;;;5.20;99.90;;;;;;5056845;28;20589;-71
2021/12/05 07:45:21;;;;;;;5.50;2.65;;;5.30;99.90;;;;;;5052109;28;20574;-71
2021/12/05 07:48:12;;;;;;;15.15;3.40;;;5.30;99.90;;;;;;5049069;28;20226;-71
2021/12/05 07:51:08;;;;;;;14.10;5.57;;;5.40;99.90;;;;;;5052188;28;20221;-71
2021/12/05 07:54:07;;;;;;;14.48;6.32;;;5.40;99.90;;;;;;5051084;28;20201;-71
2021/12/05 07:57:02;;;;;;;29.45;13.30;;;5.30;99.90;;;;;;5058510;28;20197;-71
2021/12/05 08:00:00;;;;;;;15.57;7.95;;;5.30;99.90;;;;;;5052128;28;20188;-71
2021/12/05 08:15:11;;;;;;;6.18;1.95;;;5.50;99.90;;;;;;5053968;28;20547;-71
2021/12/05 08:17:58;;;;;;;6.03;1.95;;;5.50;99.90;;;;;;5057859;28;20332;-71
2021/12/05 08:20:45;;;;;;;7.07;2.35;;;5.60;99.90;;;;;;5055369;28;20895;-71
2021/12/05 08:23:31;;;;;;;3.95;1.45;;;5.60;99.90;;;;;;5055198;28;20673;-71
2021/12/05 08:26:20;;;;;;;2.60;1.70;;;5.60;99.90;;;;;;5060597;28;20287;-71
2021/12/05 08:29:14;;;;;;;2.47;1.70;;;5.60;99.90;;;;;;5048217;28;20216;-71
2021/12/05 08:32:13;;;;;;;2.75;1.63;;;5.60;99.90;;;;;;5051203;28;20683;-71
2021/12/05 08:35:11;;;;;;;6.72;2.58;;;5.70;99.90;;;;;;5050802;28;20204;-71
2021/12/05 08:41:29;;;;;;;4.53;1.27;;;5.70;99.90;;;;;;5033185;28;20196;-71
2021/12/05 09:24:48;;;;;;;5.80;1.70;;;5.80;99.90;;;;;;5017271;28;20267;-71
2021/12/05 09:27:57;;;;;;;4.07;2.00;;;5.70;99.90;;;;;;5050996;28;20563;-71
2021/12/05 09:30:58;;;;;;;4.70;1.95;;;5.80;99.90;;;;;;5062108;28;20252;-71
2021/12/05 10:07:45;;;;;;;6.18;2.00;;;6.20;99.90;;;;;;5048037;28;20252;-71
2021/12/05 10:10:37;;;;;;;3.33;1.80;;;6.20;99.90;;;;;;5049538;28;20712;-71
2021/12/05 10:13:30;;;;;;;4.43;2.05;;;6.20;99.90;;;;;;5052809;28;20240;-71
2021/12/05 10:16:22;;;;;;;2.30;1.60;;;6.20;99.90;;;;;;5058621;28;20205;-71
2021/12/05 10:19:43;;;;;;;4.18;2.30;;;6.10;99.90;;;;;;5048703;28;20205;-71
2021/12/05 10:35:12;;;;;;;3.80;1.95;;;6.00;99.90;;;;;;5050046;28;20196;-71
2021/12/05 10:38:03;;;;;;;5.22;2.15;;;6.00;99.90;;;;;;5041991;28;20200;-71
2021/12/05 10:40:59;;;;;;;5.22;2.13;;;6.00;99.90;;;;;;5058109;28;20208;-71
2021/12/05 10:43:49;;;;;;;6.00;2.00;;;6.00;99.90;;;;;;5054655;28;20324;-71
2021/12/05 10:46:37;;;;;;;4.97;2.15;;;6.00;99.90;;;;;;5048388;28;21958;-71
2021/12/05 10:49:22;;;;;;;4.63;2.00;;;6.00;99.90;;;;;;5052304;28;20670;-71
2021/12/05 10:52:16;;;;;;;6.55;2.00;;;5.90;99.90;;;;;;5050740;28;20220;-71
2021/12/05 10:55:04;;;;;;;4.65;1.52;;;5.90;99.90;;;;;;5052360;28;20271;-71
2021/12/05 10:57:50;;;;;;;6.82;2.03;;;6.00;99.90;;;;;;5054394;28;20561;-71
2021/12/05 11:00:36;;;;;;;8.35;3.65;;;6.00;99.90;;;;;;5052997;28;20690;-70
2021/12/05 11:03:24;;;;;;;4.22;1.98;;;6.10;99.90;;;;;;5053526;28;20220;-71
2021/12/05 11:06:23;;;;;;;4.65;2.15;;;6.10;99.90;;;;;;5049865;28;20290;-71
2021/12/05 11:09:14;;;;;;;5.03;2.30;;;6.10;99.90;;;;;;5052813;28;20205;-71
2021/12/05 11:12:02;;;;;;;3.72;1.60;;;6.10;99.90;;;;;;5051610;28;20580;-71
2021/12/05 11:14:49;;;;;;;6.80;2.70;;;6.10;99.90;;;;;;5057211;28;20318;-71
2021/12/05 11:17:38;;;;;;;7.38;2.60;;;6.10;99.90;;;;;;5048659;28;20347;-71
2021/12/05 11:20:31;;;;;;;6.28;2.25;;;6.10;99.90;;;;;;5062499;28;20213;-71
2021/12/05 11:23:19;;;;;;;4.60;2.72;;;6.20;99.90;;;;;;5051726;28;20201;-71
2021/12/05 11:26:18;;;;;;;2.55;1.80;;;6.20;99.90;;;;;;5059324;28;20212;-71
2021/12/05 11:29:05;;;;;;;4.75;1.95;;;6.30;99.90;;;;;;5053286;28;20674;-71
2021/12/05 11:31:52;;;;;;;4.70;2.15;;;6.40;99.90;;;;;;5054759;28;20840;-71
2021/12/05 11:34:38;;;;;;;7.72;2.10;;;6.50;99.90;;;;;;5061355;28;20559;-71
2021/12/05 11:37:24;;;;;;;3.65;2.20;;;6.60;99.90;;;;;;5050989;28;20255;-71
2021/12/05 11:40:10;;;;;;;8.00;1.83;;;6.70;99.90;;;;;;5051908;28;20213;-70
2021/12/05 11:43:01;;;;;;;4.05;1.95;;;6.70;99.90;;;;;;5064290;28;20599;-71
2021/12/05 11:45:58;;;;;;;9.18;2.10;;;6.70;99.90;;;;;;5052881;28;20329;-71
2021/12/05 11:48:46;;;;;;;2.78;1.50;;;6.70;99.90;;;;;;5055590;28;20216;-71
2021/12/05 11:51:34;;;;;;;4.18;1.75;;;6.70;99.90;;;;;;5053126;28;20271;-71
2021/12/05 11:54:22;;;;;;;4.47;2.22;;;6.60;99.90;;;;;;5055545;28;20212;-71
2021/12/05 11:57:11;;;;;;;2.70;1.67;;;6.60;99.90;;;;;;5050467;28;20208;-71
2021/12/05 12:00:00;;;;;;;4.90;2.47;;;6.60;99.90;;;;;;5055223;28;20252;-71
2021/12/05 12:02:48;;;;;;;3.55;2.20;;;6.70;99.90;;;;;;5050546;28;20503;-71
2021/12/05 12:05:37;;;;;;;3.37;1.63;;;6.70;99.90;;;;;;5051090;28;20233;-71
2021/12/05 12:08:23;;;;;;;3.38;1.90;;;6.90;99.90;;;;;;5055041;28;20420;-71
2021/12/05 12:11:08;;;;;;;4.35;1.98;;;7.00;99.90;;;;;;5056805;28;20587;-71
2021/12/05 12:13:55;;;;;;;4.38;2.08;;;7.20;99.90;;;;;;5054269;28;20279;-71
2021/12/05 12:16:44;;;;;;;2.90;1.45;;;7.30;99.90;;;;;;5050690;28;20212;-71
2021/12/05 12:19:30;;;;;;;3.47;1.70;;;7.30;99.90;;;;;;5058075;28;20225;-71
2021/12/05 12:22:19;;;;;;;4.57;1.95;;;7.10;99.90;;;;;;5055295;28;20232;-71
2021/12/05 12:25:09;;;;;;;2.63;1.80;;;7.30;99.90;;;;;;5052434;28;20371;-71
2021/12/05 12:27:55;;;;;;;3.17;2.33;;;8.00;99.90;;;;;;5052148;28;20686;-71
2021/12/05 12:30:43;;;;;;;4.18;2.10;;;8.60;99.90;;;;;;5058055;28;20708;-71
2021/12/05 12:33:32;;;;;;;2.53;1.90;;;8.80;99.90;;;;;;5051916;28;20263;-71
2021/12/05 12:36:32;;;;;;;2.30;1.40;;;9.20;99.90;;;;;;5050472;28;20201;-71
2021/12/05 12:39:30;;;;;;;2.40;1.67;;;9.40;99.90;;;;;;5056275;28;20798;-71
2021/12/05 12:42:20;;;;;;;2.97;1.42;;;9.40;99.90;;;;;;5054194;28;20528;-71
2021/12/05 12:45:14;;;;;;;4.07;1.83;;;9.30;99.90;;;;;;5054932;28;20285;-71
2021/12/05 12:48:02;;;;;;;4.33;1.43;;;8.90;99.90;;;;;;5058531;28;20294;-71
2021/12/05 12:50:52;;;;;;;2.47;1.42;;;9.20;99.90;;;;;;5057847;28;20569;-71
2021/12/05 12:53:41;;;;;;;2.53;1.50;;;10.20;99.90;;;;;;5056836;28;20240;-71
2021/12/05 12:56:27;;;;;;;3.67;1.40;;;11.70;92.10;;;;;;5053481;28;20443;-71
2021/12/05 12:59:17;;;;;;;3.80;1.33;;;13.30;76.60;;;;;;5054245;28;20423;-71
2021/12/05 13:02:28;;;;;;;3.33;1.30;;;15.10;54.30;;;;;;5048934;28;20815;-71
2021/12/05 13:05:40;;;;;;;2.60;1.60;;;14.90;50.40;;;;;;5052259;28;20422;-71
2021/12/05 13:11:32;;;;;;;4.80;2.10;;;12.10;60.70;;;;;;5059808;28;21002;-71
2021/12/05 13:14:19;;;;;;;4.17;1.80;;;10.50;78.50;;;;;;5053790;28;21046;-71
2021/12/05 13:17:05;;;;;;;3.63;1.60;;;9.80;94.00;;;;;;5047695;28;20929;-71
2021/12/05 13:19:59;;;;;;;4.60;1.50;;;9.10;99.90;;;;;;5058856;28;20426;-71
2021/12/05 13:23:07;;;;;;;3.77;1.40;;;8.80;99.90;;;;;;5053409;28;20442;-71
2021/12/05 13:26:15;;;;;;;4.33;1.60;;;8.20;99.90;;;;;;5047152;28;20439;-71
2021/12/05 13:29:13;;;;;;;4.40;1.40;;;8.00;99.90;;;;;;5046094;28;20782;-71
2021/12/05 13:32:07;;;;;;;6.40;1.85;;;7.80;99.90;;;;;;5050248;28;20716;-71
2021/12/05 13:34:55;;;;;;;3.05;1.75;;;7.70;99.90;;;;;;5050532;28;20718;-71
2021/12/05 13:37:47;;;;;;;4.57;1.90;;;7.70;99.90;;;;;;5056574;28;20567;-71
2021/12/05 13:40:34;;;;;;;2.53;2.17;;;7.60;99.90;;;;;;5051308;28;20729;-71
2021/12/05 13:43:29;;;;;;;4.20;2.05;;;7.30;99.90;;;;;;5074536;22;20852;-74
2021/12/05 13:46:33;;;;;;;3.85;2.85;;;7.20;99.90;;;;;;5047661;28;20279;-74
2021/12/05 13:49:35;;;;;;;5.75;2.13;;;7.10;99.90;;;;;;5070788;28;20207;-74
2021/12/05 13:52:33;;;;;;;6.82;2.33;;;7.00;99.90;;;;;;5052319;28;20596;-74
2021/12/05 13:55:33;;;;;;;4.18;2.25;;;7.00;99.90;;;;;;5051861;28;20205;-74
2021/12/05 13:58:29;;;;;;;4.28;1.92;;;7.00;99.90;;;;;;5057361;28;20679;-74
2021/12/05 14:01:20;;;;;;;4.05;1.52;;;7.00;99.90;;;;;;5053737;28;20278;-74
2021/12/05 14:04:09;;;;;;;3.15;1.90;;;7.10;99.90;;;;;;5056122;28;20216;-74
2021/12/05 14:06:58;;;;;;;3.38;2.03;;;7.10;99.90;;;;;;5057322;28;20650;-74
2021/12/05 14:09:47;;;;;;;2.40;1.70;;;7.10;99.90;;;;;;5052291;28;20303;-73
2021/12/05 14:12:38;;;;;;;5.53;1.70;;;7.10;99.90;;;;;;5053929;28;20228;-74
2021/12/05 14:15:25;;;;;;;3.10;2.15;;;7.10;99.90;;;;;;5052622;28;20220;-74
2021/12/05 14:18:20;;;;;;;6.38;1.95;;;7.10;99.90;;;;;;5048046;28;20196;-74
2021/12/05 14:21:12;;;;;;;3.28;2.05;;;7.20;99.90;;;;;;5061576;28;20267;-75
2021/12/05 14:24:00;;;;;;;7.53;2.25;;;7.20;99.90;;;;;;5053340;28;20674;-75
2021/12/05 14:26:49;;;;;;;3.72;2.38;;;7.20;99.90;;;;;;5052144;28;20837;-75
2021/12/05 14:29:39;;;;;;;3.95;1.70;;;7.20;99.90;;;;;;5055842;28;20685;-75
2021/12/05 14:32:29;;;;;;;6.30;1.77;;;7.20;99.90;;;;;;5062927;28;20298;-74
2021/12/05 14:35:17;;;;;;;3.28;1.73;;;7.10;99.90;;;;;;5046527;28;20224;-75
2021/12/05 14:38:06;;;;;;;2.38;1.52;;;7.20;99.90;;;;;;5053450;28;20286;-75
2021/12/05 14:40:52;;;;;;;12.02;4.40;;;7.10;99.90;;;;;;5060725;28;20204;-75
2021/12/05 14:43:38;;;;;;;8.25;5.00;;;7.10;99.90;;;;;;5062140;28;20263;-75
2021/12/05 14:46:24;;;;;;;8.98;4.40;;;7.20;99.90;;;;;;5050777;28;20338;-74
2021/12/05 14:49:11;;;;;;;6.50;4.00;;;7.20;99.90;;;;;;5061641;28;20197;-75
2021/12/05 14:51:57;;;;;;;6.72;3.80;;;7.10;99.90;;;;;;5047344;28;20558;-75
2021/12/05 14:54:43;;;;;;;8.95;3.53;;;7.10;99.90;;;;;;5053675;28;20282;-74
2021/12/05 14:57:31;;;;;;;4.35;2.80;;;7.10;99.90;;;;;;5056641;28;20204;-75
2021/12/05 15:00:25;;;;;;;3.25;2.20;;;7.00;99.90;;;;;;5052999;28;20332;-74
2021/12/05 15:03:14;;;;;;;3.30;2.10;;;6.80;99.90;;;;;;5054564;28;20215;-75
2021/12/05 15:06:04;;;;;;;5.90;1.90;;;6.70;99.90;;;;;;5051417;28;20196;-75
2021/12/05 15:08:50;;;;;;;4.45;1.92;;;6.60;99.90;;;;;;5057211;28;20275;-74
2021/12/05 15:11:35;;;;;;;3.35;1.80;;;6.30;99.90;;;;;;5059610;28;20594;-75
2021/12/05 15:14:22;;;;;;;12.05;4.10;;;6.20;99.90;;;;;;5049518;28;20316;-74
2021/12/05 15:17:12;;;;;;;6.63;1.70;;;6.20;99.90;;;;;;5052784;28;20236;-74
2021/12/05 15:20:00;;;;;;;11.30;1.60;;;6.20;99.90;;;;;;5053101;28;20204;-74
2021/12/05 15:22:49;;;;;;;3.88;2.15;;;6.30;99.90;;;;;;5056697;28;20220;-74
2021/12/05 15:25:38;;;;;;;4.43;2.50;;;6.30;99.90;;;;;;5054581;28;20589;-74
2021/12/05 15:28:23;;;;;;;4.50;2.00;;;6.30;99.90;;;;;;5059457;28;20208;-74
2021/12/05 15:31:10;;;;;;;3.50;1.92;;;6.40;99.90;;;;;;5064531;28;20694;-75
2021/12/05 15:33:55;;;;;;;2.78;1.55;;;6.30;99.90;;;;;;5054508;28;20208;-74
2021/12/05 15:36:41;;;;;;;3.80;1.60;;;6.30;99.90;;;;;;5062773;28;20748;-74
2021/12/05 15:39:30;;;;;;;2.20;1.60;;;6.30;99.90;;;;;;5064417;28;20201;-74
2021/12/05 15:42:24;;;;;;;3.40;1.73;;;6.20;99.90;;;;;;5059122;28;20298;-74
2021/12/05 15:45:14;;;;;;;4.00;2.25;;;6.20;99.90;;;;;;5050628;28;20204;-75
2021/12/05 15:48:00;;;;;;;4.10;1.73;;;6.20;99.90;;;;;;5054547;28;20223;-75
2021/12/05 15:50:45;;;;;;;3.17;1.77;;;6.20;99.90;;;;;;5053531;28;20565;-75
2021/12/05 15:53:33;;;;;;;3.75;1.77;;;6.20;99.90;;;;;;5055615;28;20229;-74
2021/12/05 15:56:22;;;;;;;2.28;1.50;;;6.20;99.90;;;;;;5056790;28;20196;-74
2021/12/05 15:59:17;;;;;;;3.40;1.48;;;6.20;99.90;;;;;;5060205;28;20208;-74
2021/12/05 16:02:07;;;;;;;4.25;1.63;;;6.10;99.90;;;;;;5059611;28;20212;-75
2021/12/05 16:04:52;;;;;;;2.00;1.40;;;6.00;99.90;;;;;;5055448;28;20191;-75
2021/12/05 16:07:38;;;;;;;4.15;1.95;;;6.00;99.90;;;;;;5053814;28;20200;-75
2021/12/05 16:10:25;;;;;;;3.33;1.50;;;5.90;99.90;;;;;;5062449;28;20258;-74
2021/12/05 16:13:15;;;;;;;5.65;2.30;;;5.80;99.90;;;;;;5045262;28;20228;-75
2021/12/05 16:16:09;;;;;;;4.03;1.85;;;5.80;99.90;;;;;;5059288;28;20258;-75
2021/12/05 16:18:56;;;;;;;3.50;1.92;;;5.70;99.90;;;;;;5047247;28;20201;-74
2021/12/05 16:21:42;;;;;;;3.08;2.00;;;5.70;99.90;;;;;;5057758;28;20268;-74
2021/12/05 16:24:27;;;;;;;7.95;2.53;;;5.70;99.90;;;;;;5050786;28;20207;-75
2021/12/05 16:27:13;;;;;;;4.22;1.90;;;5.60;99.90;;;;;;5051689;28;20343;-74
2021/12/05 16:30:02;;;;;;;2.42;1.90;;;5.60;99.90;;;;;;5053652;28;20204;-74
2021/12/05 16:32:48;;;;;;;4.25;1.80;;;5.60;99.90;;;;;;5059161;28;20589;-74
2021/12/05 16:35:36;;;;;;;3.15;2.10;;;5.40;99.90;;;;;;5059876;28;20204;-75
2021/12/05 16:38:29;;;;;;;3.28;2.10;;;5.40;99.90;;;;;;5059354;28;20276;-74
2021/12/05 16:41:28;;;;;;;3.00;1.98;;;5.40;99.90;;;;;;5046968;28;20400;-73
2021/12/05 16:44:15;;;;;;;3.53;2.38;;;5.30;99.90;;;;;;5053961;28;20283;-72
2021/12/05 16:47:10;;;;;;;5.40;3.10;;;5.30;99.90;;;;;;5061337;28;20692;-74
2021/12/05 16:49:59;;;;;;;4.53;2.47;;;5.20;99.90;;;;;;5058298;28;20263;-73
2021/12/05 16:52:48;;;;;;;7.10;3.35;;;5.20;99.90;;;;;;5055904;28;20224;-73
2021/12/05 16:55:33;;;;;;;7.57;2.80;;;5.10;99.90;;;;;;5051046;28;20213;-73
2021/12/05 16:58:20;;;;;;;5.05;3.13;;;5.10;99.90;;;;;;5050252;28;20572;-72
2021/12/05 17:01:07;;;;;;;3.67;2.47;;;5.10;99.90;;;;;;5057367;28;20286;-74
2021/12/05 17:03:55;;;;;;;8.55;4.10;;;5.00;99.90;;;;;;5052958;28;20208;-74
2021/12/05 17:06:51;;;;;;;4.78;3.78;;;5.00;99.90;;;;;;5056901;28;20323;-74
2021/12/05 17:09:39;;;;;;;4.63;3.33;;;4.70;99.90;;;;;;5061108;28;20204;-74
2021/12/05 17:12:27;;;;;;;6.72;3.63;;;4.70;99.90;;;;;;5056318;28;20229;-73
2021/12/05 17:15:17;;;;;;;6.75;4.25;;;4.60;99.90;;;;;;5048736;28;20305;-74
2021/12/05 17:18:04;;;;;;;6.72;4.40;;;4.60;99.90;;;;;;5051044;28;20204;-73
2021/12/05 17:20:55;;;;;;;11.35;3.78;;;4.60;99.90;;;;;;5051986;28;20223;-73
2021/12/05 17:23:43;;;;;;;6.82;3.58;;;4.60;99.90;;;;;;5047412;28;20264;-74
2021/12/05 17:26:32;;;;;;;5.53;3.70;;;4.50;99.90;;;;;;5054879;28;20732;-73
2021/12/05 17:29:20;;;;;;;4.68;3.20;;;4.50;99.90;;;;;;5052912;28;20271;-74
2021/12/05 17:32:08;;;;;;;6.43;3.55;;;4.50;99.90;;;;;;5050789;28;20227;-73
2021/12/05 17:34:57;;;;;;;5.75;3.60;;;4.50;99.90;;;;;;5051958;28;20279;-74
2021/12/05 17:37:47;;;;;;;4.05;3.15;;;4.70;99.90;;;;;;5057026;28;20205;-74
2021/12/05 17:40:33;;;;;;;4.68;3.58;;;4.70;99.90;;;;;;5053926;28;20250;-73
2021/12/05 17:43:19;;;;;;;8.27;4.30;;;4.80;99.90;;;;;;5054079;28;20863;-73
2021/12/05 17:46:05;;;;;;;6.88;4.03;;;4.80;99.90;;;;;;5051599;28;20243;-73
2021/12/05 17:48:51;;;;;;;6.25;4.70;;;4.80;99.90;;;;;;5051080;28;20201;-73
2021/12/05 17:51:39;;;;;;;5.97;3.60;;;4.80;99.90;;;;;;5058771;28;20228;-73
2021/12/05 17:54:32;;;;;;;4.97;3.85;;;4.80;99.90;;;;;;5056176;28;20196;-73
2021/12/05 17:57:22;;;;;;;6.65;3.80;;;4.80;99.90;;;;;;5052403;28;20201;-74
2021/12/05 18:00:20;;;;;;;5.72;3.95;;;4.80;99.90;;;;;;5051169;28;20258;-74
2021/12/05 18:03:08;;;;;;;7.38;4.75;;;4.80;99.90;;;;;;5055391;28;20212;-74
2021/12/05 18:05:54;;;;;;;8.32;4.85;;;4.80;99.90;;;;;;5045926;28;20348;-73
2021/12/05 18:08:40;;;;;;;5.15;4.00;;;4.70;99.90;;;;;;5058535;28;20208;-73
2021/12/05 18:11:27;;;;;;;5.38;4.60;;;4.60;99.90;;;;;;5052889;28;20606;-73
2021/12/05 18:14:13;;;;;;;14.07;4.97;;;4.70;99.90;;;;;;5058164;28;20672;-74
2021/12/05 18:16:58;;;;;;;6.03;3.97;;;4.70;99.90;;;;;;5056317;28;20199;-73
2021/12/05 18:19:44;;;;;;;6.25;3.92;;;4.70;99.90;;;;;;5055847;28;20208;-73
2021/12/05 18:22:31;;;;;;;11.30;4.85;;;4.60;99.90;;;;;;5045804;28;20228;-73
2021/12/05 18:25:16;;;;;;;7.95;5.40;;;4.60;99.90;;;;;;5052455;28;20789;-73
2021/12/05 18:28:04;;;;;;;5.47;4.70;;;4.50;99.90;;;;;;5053531;28;20202;-73
2021/12/05 18:30:51;;;;;;;5.85;4.63;;;4.50;99.90;;;;;;5058983;28;20270;-73
2021/12/05 18:33:37;;;;;;;6.50;4.78;;;4.60;99.90;;;;;;5044708;28;20217;-74
2021/12/05 18:36:24;;;;;;;7.38;5.00;;;4.60;99.90;;;;;;5064474;28;20278;-73
2021/12/05 18:39:13;;;;;;;5.43;4.22;;;4.70;99.90;;;;;;5059768;28;20209;-73
2021/12/05 18:42:04;;;;;;;8.93;4.82;;;4.60;99.90;;;;;;5045686;28;20237;-73
2021/12/05 18:44:58;;;;;;;6.00;4.03;;;4.60;99.90;;;;;;5057839;28;20204;-74
2021/12/05 18:47:44;;;;;;;4.78;4.20;;;4.70;99.90;;;;;;5059220;28;20224;-73
2021/12/05 18:50:30;;;;;;;5.38;4.32;;;4.70;99.90;;;;;;5054518;28;20212;-74
2021/12/05 18:53:17;;;;;;;6.82;4.50;;;4.70;99.90;;;;;;5052099;28;20343;-74